createdAt,value
2022-10-01T00:00:50.587Z,75.91
2022-10-01T00:04:22.992Z,75.92
2022-10-01T00:07:59.463Z,75.97
2022-10-01T00:11:36.713Z,76.18
2022-10-01T00:15:16.513Z,76.20
2022-10-01T00:22:26.658Z,76.41
2022-10-01T00:26:17.934Z,76.33
2022-10-01T00:29:41.238Z,77.12
2022-10-01T00:33:17.158Z,77.30
2022-10-01T00:36:53.890Z,77.36
2022-10-01T00:40:31.573Z,77.06
2022-10-01T00:44:35.073Z,77.33
2022-10-01T00:47:56.131Z,77.22
2022-10-01T00:51:21.466Z,77.57
2022-10-01T00:55:02.972Z,77.54
2022-10-01T00:58:35.173Z,77.43
2022-10-01T01:02:12.282Z,77.66
2022-10-01T01:05:50.431Z,77.57
2022-10-01T01:13:09.612Z,77.73
2022-10-01T01:16:50.613Z,77.73
2022-10-01T01:20:29.204Z,78.00
2022-10-01T01:24:04.555Z,77.93
2022-10-01T01:27:53.894Z,77.89
2022-10-01T01:31:11.138Z,77.71
2022-10-01T01:34:49.140Z,77.83
2022-10-01T01:38:24.698Z,77.81
2022-10-01T01:42:01.318Z,77.64
2022-10-01T01:45:36.521Z,78.21
2022-10-01T01:49:09.994Z,77.93
2022-10-01T01:56:24.108Z,78.14
2022-10-01T02:00:02.752Z,78.38
2022-10-01T02:03:37.126Z,78.26
2022-10-01T02:07:26.515Z,78.29
2022-10-01T02:11:05.716Z,78.41
2022-10-01T02:14:55.309Z,78.57
2022-10-01T02:18:33.839Z,78.42
2022-10-01T02:22:11.783Z,78.51
2022-10-01T02:25:28.685Z,78.57
2022-10-01T02:29:06.915Z,78.60
2022-10-01T02:32:40.887Z,78.60
2022-10-01T02:36:16.426Z,78.61
2022-10-01T02:39:53.173Z,78.48
2022-10-01T02:43:46.111Z,78.35
2022-10-01T02:47:15.982Z,78.53
2022-10-01T02:50:50.551Z,78.46
2022-10-01T02:54:32.074Z,78.46
2022-10-01T02:57:55.957Z,78.50
2022-10-01T03:01:32.162Z,78.61
2022-10-01T03:05:09.249Z,78.54
2022-10-01T03:08:45.394Z,78.90
2022-10-01T03:12:23.647Z,79.06
2022-10-01T03:15:59.186Z,78.99
2022-10-01T03:23:12.579Z,79.27
2022-10-01T03:26:49.986Z,79.40
2022-10-01T03:30:27.306Z,79.76
2022-10-01T03:34:02.972Z,80.08
2022-10-01T03:37:39.559Z,80.55
2022-10-01T03:41:16.545Z,80.22
2022-10-01T03:44:53.281Z,79.94
2022-10-01T03:48:30.684Z,80.25
2022-10-01T03:52:06.895Z,79.93
2022-10-01T03:55:43.693Z,80.01
2022-10-01T03:59:21.524Z,79.79
2022-10-01T04:02:57.519Z,79.71
2022-10-01T04:06:34.648Z,79.28
2022-10-01T04:10:11.028Z,79.30
2022-10-01T04:13:48.068Z,79.00
2022-10-01T04:17:24.640Z,78.95
2022-10-01T04:21:01.255Z,78.94
2022-10-01T04:24:38.142Z,78.71
2022-10-01T04:28:14.940Z,78.81
2022-10-01T04:31:54.013Z,78.65
2022-10-01T04:35:29.231Z,79.28
2022-10-01T04:39:05.372Z,79.22
2022-10-01T04:42:43.772Z,79.04
2022-10-01T04:46:18.822Z,79.06
2022-10-01T04:49:55.360Z,78.92
2022-10-01T04:53:32.585Z,79.17
2022-10-01T04:57:09.407Z,79.13
2022-10-01T05:00:46.098Z,78.96
2022-10-01T05:04:22.890Z,79.10
2022-10-01T05:08:00.012Z,79.21
2022-10-01T05:11:36.729Z,79.22
2022-10-01T05:15:13.659Z,79.06
2022-10-01T05:18:50.249Z,79.10
2022-10-01T05:22:26.601Z,79.30
2022-10-01T05:26:07.598Z,79.25
2022-10-01T05:29:41.756Z,79.39
2022-10-01T05:33:17.136Z,79.27
2022-10-01T05:36:55.170Z,78.76
2022-10-01T05:40:31.477Z,78.60
2022-10-01T05:44:07.996Z,78.72
2022-10-01T05:47:44.691Z,78.58
2022-10-01T05:51:20.754Z,78.60
2022-10-01T05:54:57.571Z,78.30
2022-10-01T05:58:35.319Z,78.06
2022-10-01T06:02:11.223Z,78.18
2022-10-01T06:09:25.479Z,76.93
2022-10-01T06:13:02.620Z,76.47
2022-10-01T06:16:40.419Z,75.83
2022-10-01T06:20:17.605Z,74.68
2022-10-01T06:23:52.960Z,74.78
2022-10-01T06:27:28.906Z,75.09
2022-10-01T06:31:06.483Z,74.81
2022-10-01T06:34:42.732Z,74.17
2022-10-01T06:38:21.838Z,73.95
2022-10-01T06:41:56.025Z,73.28
2022-10-01T06:45:32.680Z,72.05
2022-10-01T06:49:09.738Z,71.38
2022-10-01T06:56:23.282Z,69.88
2022-10-01T07:00:00.328Z,70.03
2022-10-01T07:03:36.779Z,70.10
2022-10-01T07:07:13.616Z,70.16
2022-10-01T07:10:50.709Z,69.59
2022-10-01T07:14:27.057Z,69.39
2022-10-01T07:18:04.855Z,69.13
2022-10-01T07:21:40.540Z,69.30
2022-10-01T07:25:18.065Z,68.84
2022-10-01T07:28:55.555Z,68.59
2022-10-01T07:32:31.952Z,67.68
2022-10-01T07:36:11.062Z,67.11
2022-10-01T07:39:44.608Z,66.44
2022-10-01T07:43:22.376Z,66.91
2022-10-01T07:46:58.405Z,67.62
2022-10-01T07:50:35.210Z,67.31
2022-10-01T07:54:12.134Z,66.82
2022-10-01T07:57:55.644Z,66.06
2022-10-01T08:01:25.980Z,64.93
2022-10-01T08:05:20.687Z,64.50
2022-10-01T08:08:39.461Z,64.02
2022-10-01T08:12:17.882Z,64.36
2022-10-01T08:15:54.904Z,64.12
2022-10-01T08:19:30.321Z,64.64
2022-10-01T08:23:11.805Z,64.52
2022-10-01T08:26:44.009Z,63.43
2022-10-01T08:30:20.053Z,64.01
2022-10-01T08:33:57.211Z,64.37
2022-10-01T08:37:33.484Z,64.34
2022-10-01T08:41:23.384Z,64.82
2022-10-01T08:44:47.253Z,65.07
2022-10-01T08:49:02.077Z,64.73
2022-10-01T08:52:07.112Z,64.36
2022-10-01T08:55:42.172Z,63.37
2022-10-01T08:59:33.953Z,63.10
2022-10-01T09:02:53.086Z,63.39
2022-10-01T09:06:30.164Z,63.66
2022-10-01T09:10:36.672Z,65.48
2022-10-01T09:14:20.276Z,65.48
2022-10-01T09:17:44.907Z,65.56
2022-10-01T09:21:21.301Z,66.30
2022-10-01T09:25:10.209Z,66.43
2022-10-01T09:28:32.683Z,66.24
2022-10-01T09:32:04.124Z,65.79
2022-10-01T09:35:49.647Z,66.03
2022-10-01T09:39:30.140Z,66.93
2022-10-01T09:42:52.162Z,67.11
2022-10-01T09:46:28.906Z,67.00
2022-10-01T09:50:06.921Z,66.77
2022-10-01T09:53:52.194Z,66.22
2022-10-01T09:57:28.955Z,65.74
2022-10-01T10:00:56.713Z,66.16
2022-10-01T10:04:33.241Z,66.69
2022-10-01T10:08:13.749Z,66.95
2022-10-01T10:11:46.053Z,66.18
2022-10-01T10:15:26.629Z,66.57
2022-10-01T10:19:14.101Z,67.07
2022-10-01T10:22:36.364Z,66.66
2022-10-01T10:26:21.191Z,66.94
2022-10-01T10:29:49.838Z,67.65
2022-10-01T10:33:27.029Z,68.00
2022-10-01T10:37:07.310Z,68.22
2022-10-01T10:40:45.896Z,67.97
2022-10-01T10:44:22.496Z,68.38
2022-10-01T10:47:53.961Z,68.05
2022-10-01T10:51:42.794Z,69.76
2022-10-01T10:55:31.764Z,69.68
2022-10-01T10:58:45.573Z,69.41
2022-10-01T11:02:24.084Z,69.37
2022-10-01T11:06:11.893Z,68.72
2022-10-01T11:09:43.895Z,68.33
2022-10-01T11:13:50.072Z,68.76
2022-10-01T11:17:18.847Z,68.57
2022-10-01T11:20:35.244Z,69.19
2022-10-01T11:24:33.377Z,69.28
2022-10-01T11:28:03.715Z,69.32
2022-10-01T11:31:19.103Z,69.84
2022-10-01T11:35:13.169Z,69.53
2022-10-01T11:38:59.165Z,69.94
2022-10-01T11:42:16.196Z,69.60
2022-10-01T11:45:51.965Z,69.39
2022-10-01T11:49:42.934Z,69.15
2022-10-01T11:53:12.294Z,68.86
2022-10-01T11:57:00.644Z,68.75
2022-10-01T12:00:14.316Z,68.70
2022-10-01T12:03:53.629Z,68.44
2022-10-01T12:07:53.426Z,68.78
2022-10-01T12:11:24.693Z,69.70
2022-10-01T12:14:45.526Z,70.84
2022-10-01T12:18:23.273Z,71.02
2022-10-01T12:22:15.775Z,70.65
2022-10-01T12:25:51.728Z,70.40
2022-10-01T12:29:44.980Z,70.01
2022-10-01T12:33:35.814Z,69.70
2022-10-01T12:37:26.370Z,69.01
2022-10-01T12:40:38.753Z,69.09
2022-10-01T12:44:34.438Z,69.34
2022-10-01T12:48:07.743Z,68.56
2022-10-01T12:51:40.919Z,69.11
2022-10-01T12:55:05.557Z,69.08
2022-10-01T12:59:12.538Z,68.88
2022-10-01T13:02:51.391Z,68.96
2022-10-01T13:06:19.662Z,69.28
2022-10-01T13:10:01.654Z,69.75
2022-10-01T13:13:23.692Z,70.25
2022-10-01T13:17:32.610Z,70.93
2022-10-01T13:21:10.353Z,71.05
2022-10-01T13:24:39.049Z,71.01
2022-10-01T13:28:11.073Z,71.08
2022-10-01T13:31:51.761Z,70.87
2022-10-01T13:35:24.133Z,71.25
2022-10-01T13:38:52.000Z,71.53
2022-10-01T13:42:37.186Z,71.41
2022-10-01T13:46:09.467Z,71.33
2022-10-01T13:49:42.765Z,71.63
2022-10-01T13:53:23.605Z,71.74
2022-10-01T13:57:08.894Z,72.05
2022-10-01T14:00:33.963Z,71.78
2022-10-01T14:04:34.537Z,71.68
2022-10-01T14:07:50.427Z,72.47
2022-10-01T14:11:45.273Z,72.54
2022-10-01T14:15:41.691Z,72.64
2022-10-01T14:18:56.493Z,73.05
2022-10-01T14:23:00.294Z,73.42
2022-10-01T14:26:47.527Z,73.44
2022-10-01T14:30:07.770Z,73.60
2022-10-01T14:33:55.545Z,73.16
2022-10-01T14:37:01.336Z,73.03
2022-10-01T14:40:41.585Z,73.02
2022-10-01T14:44:29.151Z,73.36
2022-10-01T14:48:07.440Z,73.81
2022-10-01T14:51:31.391Z,74.58
2022-10-01T14:55:08.485Z,74.78
2022-10-01T14:58:49.553Z,75.16
2022-10-01T15:02:21.301Z,75.25
2022-10-01T15:06:04.259Z,75.40
2022-10-01T15:09:34.150Z,75.61
2022-10-01T15:13:11.052Z,75.99
2022-10-01T15:16:46.445Z,75.51
2022-10-01T15:20:23.166Z,75.52
2022-10-01T15:24:04.572Z,75.24
2022-10-01T15:27:36.186Z,75.37
2022-10-01T15:31:13.139Z,75.63
2022-10-01T15:34:54.227Z,75.70
2022-10-01T15:38:30.174Z,76.24
2022-10-01T15:42:21.692Z,76.22
2022-10-01T15:45:41.113Z,76.76
2022-10-01T15:49:24.781Z,76.80
2022-10-01T15:53:18.031Z,76.73
2022-10-01T15:56:30.475Z,76.76
2022-10-01T16:00:20.358Z,76.58
2022-10-01T16:03:52.644Z,76.78
2022-10-01T16:07:26.444Z,76.95
2022-10-01T16:11:18.194Z,77.22
2022-10-01T16:14:59.105Z,77.59
2022-10-01T16:18:22.738Z,77.98
2022-10-01T16:22:15.629Z,78.33
2022-10-01T16:25:33.246Z,78.34
2022-10-01T16:29:27.729Z,78.66
2022-10-01T16:32:38.888Z,78.82
2022-10-01T16:36:20.316Z,78.33
2022-10-01T16:39:51.934Z,78.40
2022-10-01T16:43:28.813Z,78.42
2022-10-01T16:47:07.666Z,78.47
2022-10-01T16:50:47.906Z,78.42
2022-10-01T16:54:27.172Z,78.36
2022-10-01T16:57:56.150Z,78.24
2022-10-01T17:01:32.634Z,78.11
2022-10-01T17:05:25.597Z,78.07
2022-10-01T17:08:46.515Z,78.24
2022-10-01T17:12:22.845Z,78.45
2022-10-01T17:16:06.002Z,78.56
2022-10-01T17:19:37.082Z,78.68
2022-10-01T17:23:19.634Z,78.57
2022-10-01T17:26:50.225Z,78.26
2022-10-01T17:30:29.615Z,78.03
2022-10-01T17:34:05.031Z,77.82
2022-10-01T17:37:41.713Z,77.94
2022-10-01T17:41:17.491Z,78.01
2022-10-01T17:44:55.100Z,78.67
2022-10-01T17:48:31.505Z,78.49
2022-10-01T17:52:08.035Z,78.71
2022-10-01T17:55:47.074Z,78.99
2022-10-01T17:59:22.172Z,78.84
2022-10-01T18:03:00.491Z,79.00
2022-10-01T18:06:35.587Z,78.92
2022-10-01T18:10:13.720Z,79.02
2022-10-01T18:13:48.900Z,79.20
2022-10-01T18:17:25.407Z,79.17
2022-10-01T18:21:06.013Z,78.49
2022-10-01T18:24:38.986Z,78.60
2022-10-01T18:28:15.893Z,78.43
2022-10-01T18:31:56.372Z,78.47
2022-10-01T18:35:57.007Z,78.40
2022-10-01T18:39:15.513Z,78.39
2022-10-01T18:42:57.908Z,78.03
2022-10-01T18:46:29.049Z,78.59
2022-10-01T18:50:13.512Z,78.67
2022-10-01T18:53:46.214Z,78.90
2022-10-01T18:57:47.548Z,79.78
2022-10-01T19:00:59.074Z,80.23
2022-10-01T19:04:23.945Z,80.63
2022-10-01T19:08:26.792Z,80.40
2022-10-01T19:12:02.243Z,80.82
2022-10-01T19:15:39.915Z,80.57
2022-10-01T19:19:14.886Z,80.65
2022-10-01T19:22:49.034Z,80.09
2022-10-01T19:26:21.905Z,79.81
2022-10-01T19:30:11.956Z,80.03
2022-10-01T19:33:26.194Z,79.59
2022-10-01T19:37:26.860Z,79.34
2022-10-01T19:40:54.051Z,79.94
2022-10-01T19:44:35.160Z,79.69
2022-10-01T19:48:08.123Z,79.51
2022-10-01T19:51:57.310Z,79.92
2022-10-01T19:55:15.661Z,79.76
2022-10-01T19:58:45.705Z,79.38
2022-10-01T20:02:47.254Z,78.42
2022-10-01T20:06:21.835Z,76.98
2022-10-01T20:10:10.596Z,77.23
2022-10-01T20:13:38.558Z,76.98
2022-10-01T20:17:06.899Z,77.22
2022-10-01T20:21:01.094Z,76.62
2022-10-01T20:24:51.834Z,76.14
2022-10-01T20:28:40.334Z,76.15
2022-10-01T20:32:11.713Z,77.28
2022-10-01T20:35:55.990Z,77.62
2022-10-01T20:39:18.044Z,77.47
2022-10-01T20:42:49.100Z,77.00
2022-10-01T20:46:34.157Z,77.05
2022-10-01T20:50:09.336Z,76.82
2022-10-01T20:53:45.885Z,77.77
2022-10-01T20:57:20.433Z,77.42
2022-10-01T21:00:49.694Z,77.36
2022-10-01T21:04:38.684Z,77.51
2022-10-01T21:08:11.241Z,77.66
2022-10-01T21:11:54.233Z,77.57
2022-10-01T21:15:15.564Z,78.05
2022-10-01T21:19:17.549Z,77.84
2022-10-01T21:22:40.711Z,78.35
2022-10-01T21:26:10.991Z,78.24
2022-10-01T21:30:09.053Z,78.10
2022-10-01T21:33:25.234Z,78.15
2022-10-01T21:37:14.458Z,78.72
2022-10-01T21:40:46.228Z,79.34
2022-10-01T21:44:31.493Z,79.70
2022-10-01T21:47:55.137Z,80.28
2022-10-01T21:51:59.754Z,80.46
2022-10-01T21:55:50.294Z,80.77
2022-10-01T21:59:07.945Z,80.81
2022-10-01T22:02:43.020Z,82.01
2022-10-01T22:06:13.513Z,81.97
2022-10-01T22:10:02.302Z,82.04
2022-10-01T22:13:25.551Z,82.27
2022-10-01T22:17:03.678Z,82.91
2022-10-01T22:20:35.123Z,83.20
2022-10-01T22:24:10.637Z,83.11
2022-10-01T22:27:54.250Z,83.04
2022-10-01T22:38:57.256Z,84.44
2022-10-01T22:42:33.689Z,84.60
2022-10-01T22:46:04.669Z,84.94
2022-10-01T22:50:08.249Z,85.36
2022-10-01T22:53:31.051Z,85.24
2022-10-01T22:57:21.050Z,84.92
2022-10-01T23:00:54.281Z,85.21
2022-10-01T23:04:15.440Z,85.12
2022-10-01T23:07:51.847Z,85.45
2022-10-01T23:11:36.646Z,85.17
2022-10-01T23:15:20.695Z,84.99
2022-10-01T23:18:48.386Z,84.35
2022-10-01T23:22:19.166Z,84.55
2022-10-01T23:26:04.744Z,84.47
2022-10-01T23:30:01.464Z,84.51
2022-10-01T23:33:45.934Z,84.66
2022-10-01T23:37:27.049Z,84.89
2022-10-01T23:40:41.683Z,84.75
2022-10-01T23:44:20.804Z,85.25
2022-10-01T23:48:20.802Z,84.84
2022-10-01T23:51:46.978Z,85.07
2022-10-01T23:56:07.765Z,84.39
2022-10-01T23:59:37.721Z,84.43
